Time;durP1;ratioP1;P1;durP2;ratioP2;P2;SDS_P1;SDS_P2;PMS_P1;PMS_P2;Temp;Humidity;BMP_temperature;BMP_pressure;BME280_temperature;BME280_humidity;BME280_pressure;Samples;Min_cycle;Max_cycle;Signal;HPM_P1;HPM_P2
2022/08/11 00:00:36;;;;;;;4.13;3.28;;;;;;;17.96;100.00;102528.25;6158100;23;20024;-83
2022/08/11 00:03:07;;;;;;;4.68;3.72;;;;;;;17.92;100.00;102520.28;6120051;23;20226;-84
2022/08/11 00:05:49;;;;;;;4.93;3.83;;;;;;;17.93;100.00;102531.84;6123668;23;20022;-85
2022/08/11 00:08:24;;;;;;;4.55;3.88;;;;;;;17.92;100.00;102520.28;6099680;23;20017;-84
2022/08/11 00:11:04;;;;;;;7.30;4.20;;;;;;;17.91;100.00;102526.50;6143944;23;20028;-83
2022/08/11 00:13:35;;;;;;;;;;;;;;;17.88;100.00;102523.84;6110658;23;20464;-83
2022/08/11 00:16:10;;;;;;;;;;;;;;;17.87;100.00;102523.84;6096777;23;19921;-84
2022/08/11 00:18:41;;;;;;;7.95;4.32;;;;;;;17.83;100.00;102522.91;6143112;23;20363;-83
2022/08/11 00:21:11;;;;;;;6.93;4.55;;;;;;;17.82;100.00;102517.59;6159324;23;20021;-85
2022/08/11 00:23:45;;;;;;;9.30;4.88;;;;;;;17.80;100.00;102520.25;6122872;23;20028;-83
2022/08/11 00:26:14;;;;;;;7.93;4.90;;;;;;;17.80;100.00;102514.91;6159492;23;20018;-84
2022/08/11 00:28:43;;;;;;;6.93;5.15;;;;;;;17.78;100.00;102514.03;6099873;23;20017;-84
2022/08/11 00:31:23;;;;;;;9.77;6.20;;;;;;;17.78;100.00;102523.81;6109116;23;20022;-84
2022/08/11 00:33:52;;;;;;;7.50;5.17;;;;;;;17.78;100.00;102516.69;6123938;23;20021;-84
2022/08/11 00:36:41;;;;;;;4.68;4.13;;;;;;;17.78;100.00;102519.34;6083961;23;20025;-84
2022/08/11 00:39:12;;;;;;;10.70;5.32;;;;;;;17.78;100.00;102519.34;6151077;23;20017;-84
2022/08/11 00:42:01;;;;;;;7.88;5.70;;;;;;;17.79;100.00;102520.22;6086419;23;20188;-83
2022/08/11 00:44:48;;;;;;;7.63;5.32;;;;;;;17.78;100.00;102519.34;6145920;23;20121;-84
2022/08/11 00:47:34;;;;;;;7.07;5.25;;;;;;;17.77;100.00;102517.59;6149222;23;20018;-84
2022/08/11 00:50:05;;;;;;;8.60;5.15;;;;;;;17.76;100.00;102515.81;6139563;23;20024;-84
2022/08/11 00:52:58;;;;;;;8.82;4.93;;;;;;;17.75;100.00;102511.38;6145547;23;20242;-84
2022/08/11 00:55:50;;;;;;;7.85;5.07;;;;;;;17.73;100.00;102519.38;6142610;23;20611;-84
2022/08/11 00:59:01;;;;;;;8.73;4.88;;;;;;;17.73;100.00;102515.78;6132987;23;20017;-83
2022/08/11 01:01:37;;;;;;;6.22;4.80;;;;;;;17.72;100.00;102516.69;6143363;23;20360;-76
2022/08/11 01:04:43;;;;;;;8.35;4.82;;;;;;;17.70;100.00;102510.47;6161244;23;20013;-77
2022/08/11 01:07:47;;;;;;;9.38;5.35;;;;;;;17.70;100.00;102507.81;6150662;23;20454;-78
2022/08/11 01:10:40;;;;;;;7.60;5.07;;;;;;;17.68;100.00;102513.13;6148722;23;20215;-78
2022/08/11 01:13:18;;;;;;;6.03;5.22;;;;;;;17.67;100.00;102519.34;6187376;23;20021;-78
2022/08/11 01:15:46;;;;;;;6.53;5.90;;;;;;;17.67;100.00;102510.47;6166056;23;20028;-78
2022/08/11 01:18:58;;;;;;;10.85;5.55;;;;;;;17.65;100.00;102509.59;6182426;23;20040;-78
2022/08/11 01:22:00;;;;;;;10.23;5.93;;;;;;;17.64;100.00;102505.16;6146805;23;20057;-79
2022/08/11 01:24:50;;;;;;;9.43;5.88;;;;;;;17.62;100.00;102515.81;6184849;23;20020;-77
2022/08/11 01:28:03;;;;;;;8.48;5.60;;;;;;;17.60;100.00;102508.69;6158691;23;20017;-78
2022/08/11 01:30:56;;;;;;;9.95;5.95;;;;;;;17.58;100.00;102518.47;6141196;23;20016;-79
2022/08/11 01:33:49;;;;;;;7.70;6.85;;;;;;;17.57;100.00;102514.03;6134564;23;20017;-78
2022/08/11 01:36:36;;;;;;;9.05;6.47;;;;;;;17.54;100.00;102505.16;6180363;23;20024;-77
2022/08/11 01:39:26;;;;;;;13.45;6.45;;;;;;;17.54;100.00;102499.81;6182774;23;20013;-79
2022/08/11 01:45:47;;;;;;;10.10;6.95;;;;;;;17.51;100.00;102494.47;6160036;23;20017;-78
2022/08/11 01:48:41;;;;;;;9.93;7.47;;;;;;;17.52;100.00;102508.69;6142702;23;20021;-77
2022/08/11 01:51:39;;;;;;;9.30;7.70;;;;;;;17.50;100.00;102499.81;6152443;23;20370;-78
2022/08/11 01:54:20;;;;;;;;;;;;;;;17.48;100.00;102491.78;6184069;23;20016;-78
2022/08/11 01:57:08;;;;;;;8.82;7.90;;;;;;;17.48;100.00;102499.78;6176088;23;19920;-78
2022/08/11 01:59:48;;;;;;;;;;;;;;;17.47;100.00;102503.38;6154233;23;20017;-78
2022/08/11 02:02:46;;;;;;;14.45;9.07;;;;;;;17.44;100.00;102498.03;6144336;23;19946;-79
2022/08/11 02:05:33;;;;;;;10.00;7.88;;;;;;;17.44;100.00;102503.34;6182091;23;20056;-79
2022/08/11 02:08:34;;;;;;;10.32;7.45;;;;;;;17.44;100.00;102498.03;6178418;23;20028;-78
2022/08/11 02:11:32;;;;;;;12.43;8.10;;;;;;;17.45;100.00;102496.25;6181488;23;20142;-77
2022/08/11 02:14:18;;;;;;;15.90;8.65;;;;;;;17.43;100.00;102501.59;6157256;23;20017;-78
2022/08/11 02:16:57;;;;;;;11.88;8.15;;;;;;;17.42;100.00;102496.25;6187321;23;20028;-79
2022/08/11 02:26:06;;;;;;;13.32;8.48;;;;;;;17.40;100.00;102495.38;6187203;23;20021;-78
2022/08/11 02:29:01;;;;;;;13.50;8.75;;;;;;;17.38;100.00;102498.03;6150845;23;20374;-78
2022/08/11 02:35:00;;;;;;;16.05;11.38;;;;;;;17.37;100.00;102487.34;6169029;23;20052;-78
2022/08/11 02:37:43;;;;;;;28.20;16.15;;;;;;;17.36;100.00;102490.91;6186895;23;20025;-79
2022/08/11 02:40:26;;;;;;;33.85;23.20;;;;;;;17.35;100.00;102492.69;6176983;23;20151;-77
2022/08/11 02:43:09;;;;;;;41.35;28.13;;;;;;;17.33;100.00;102495.38;6182856;23;20016;-78
2022/08/11 02:46:16;;;;;;;51.95;35.83;;;;;;;17.33;100.00;102483.78;6160518;23;20043;-77
2022/08/11 02:52:48;;;;;;;58.92;40.75;;;;;;;17.30;100.00;102489.13;6182634;23;20024;-78
2022/08/11 02:55:20;;;;;;;75.25;48.58;;;;;;;17.28;100.00;102480.25;6171653;23;20223;-77
2022/08/11 02:59:49;;;;;;;68.85;48.22;;;;;;;17.27;100.00;102478.47;6179753;23;20286;-77
2022/08/11 03:01:58;;;;;;;61.00;41.83;;;;;;;17.25;100.00;102474.91;6182210;23;20016;-77
2022/08/11 03:04:35;;;;;;;55.50;38.65;;;;;;;17.23;100.00;102472.25;6168094;23;20017;-78
2022/08/11 03:07:22;;;;;;;55.50;37.83;;;;;;;17.21;100.00;102470.47;6156584;23;20025;-77
2022/08/11 03:10:13;;;;;;;53.72;37.20;;;;;;;17.16;100.00;102470.44;6181117;23;20073;-77
2022/08/11 03:18:45;;;;;;;49.97;35.88;;;;;;;17.05;100.00;102469.53;6185738;23;20021;-78
2022/08/11 03:21:23;;;;;;;;;;;;;;;17.00;100.00;102472.22;6153323;23;20562;-78
2022/08/11 03:24:21;;;;;;;49.17;33.15;;;;;;;16.94;100.00;102469.53;6160097;23;20033;-78
2022/08/11 03:27:20;;;;;;;52.03;34.78;;;;;;;16.94;100.00;102469.53;6180834;23;20264;-77
2022/08/11 03:30:30;;;;;;;56.92;36.88;;;;;;;16.98;100.00;102470.44;6159315;23;20020;-78
2022/08/11 03:36:40;;;;;;;45.38;31.30;;;;;;;16.91;100.00;102466.84;6128546;23;20025;-78
2022/08/11 03:40:07;;;;;;;48.25;32.95;;;;;;;16.91;100.00;102472.19;6185876;23;20332;-76
2022/08/11 03:43:02;;;;;;;44.80;29.73;;;;;;;16.91;100.00;102470.41;6147981;23;20029;-77
2022/08/11 03:45:43;;;;;;;41.60;29.80;;;;;;;16.90;100.00;102478.38;6186810;23;20020;-77
2022/08/11 03:48:26;;;;;;;50.80;31.40;;;;;;;16.90;100.00;102475.72;6179673;23;20239;-76
2022/08/11 03:51:12;;;;;;;41.35;29.52;;;;;;;16.90;100.00;102481.03;6174442;23;20009;-77
2022/08/11 03:53:48;;;;;;;36.42;27.35;;;;;;;16.89;100.00;102477.50;6186092;23;20438;-77
2022/08/11 03:56:35;;;;;;;40.60;25.98;;;;;;;16.89;100.00;102471.28;6148147;23;20021;-77
2022/08/11 03:59:27;;;;;;;37.65;26.27;;;;;;;16.86;100.00;102468.59;6167786;23;20021;-77
2022/08/11 04:02:05;;;;;;;34.75;23.75;;;;;;;16.84;100.00;102467.72;6184343;23;20025;-77
2022/08/11 04:04:49;;;;;;;32.88;21.40;;;;;;;16.82;100.00;102481.00;6183517;23;20028;-78
2022/08/11 04:07:56;;;;;;;26.15;19.48;;;;;;;16.79;100.00;102480.13;6161757;23;20174;-78
2022/08/11 04:10:43;;;;;;;26.83;19.20;;;;;;;16.74;100.00;102480.06;6186755;23;20302;-79
2022/08/11 04:13:48;;;;;;;25.58;18.52;;;;;;;16.69;100.00;102477.41;6152418;23;20122;-78
2022/08/11 04:16:46;;;;;;;23.85;17.35;;;;;;;16.66;100.00;102471.19;6185905;23;20491;-78
2022/08/11 04:19:36;;;;;;;19.63;15.65;;;;;;;16.64;100.00;102476.50;6183570;23;20021;-78
2022/08/11 04:22:47;;;;;;;19.13;16.40;;;;;;;16.65;100.00;102474.72;6164511;23;20346;-77
2022/08/11 04:25:42;;;;;;;16.85;12.93;;;;;;;16.67;100.00;102479.19;6185168;23;20017;-78
2022/08/11 04:29:02;;;;;;;22.73;13.98;;;;;;;16.72;100.00;102474.75;6161225;23;20025;-78
2022/08/11 04:31:42;;;;;;;21.20;13.23;;;;;;;16.76;100.00;102470.31;6167579;23;20025;-77
2022/08/11 04:34:35;;;;;;;20.15;12.63;;;;;;;16.79;100.00;102475.66;6186304;23;20020;-77
2022/08/11 04:37:33;;;;;;;17.38;12.80;;;;;;;16.82;100.00;102475.69;6184873;23;20023;-80
2022/08/11 04:40:23;;;;;;;19.88;13.15;;;;;;;16.82;100.00;102473.03;6140321;23;20024;-79
2022/08/11 04:43:19;;;;;;;19.58;13.60;;;;;;;16.81;100.00;102467.69;6186396;23;20025;-78
2022/08/11 04:46:11;;;;;;;15.10;11.73;;;;;;;16.80;100.00;102472.09;6183093;23;20021;-79
2022/08/11 05:02:43;;;;;;;8.95;8.05;;;;;;;19.21;100.00;102460.19;6178606;23;20154;-77
2022/08/11 05:05:32;;;;;;;11.18;7.20;;;;;;;19.94;100.00;102464.91;6183088;23;20366;-77
2022/08/11 05:08:03;;;;;;;7.95;7.15;;;;;;;20.28;100.00;102459.19;6174313;23;20028;-77
2022/08/11 05:11:09;;;;;;;7.50;6.38;;;;;;;20.60;100.00;102456.16;6162224;23;20013;-77
2022/08/11 05:34:52;;;;;;;8.07;3.53;;;;;;;25.10;100.00;102461.38;6175276;23;20021;-77
2022/08/11 05:37:37;;;;;;;7.15;2.72;;;;;;;24.98;100.00;102459.06;6183939;23;20021;-77
2022/08/11 05:57:37;;;;;;;5.90;4.32;;;;;;;23.39;97.80;102459.91;6178542;23;20029;-78
2022/08/11 06:00:19;;;;;;;8.02;4.07;;;;;;;23.01;98.99;102467.06;6185325;23;20017;-79
2022/08/11 06:02:54;;;;;;;7.88;4.10;;;;;;;22.82;99.63;102469.28;6181183;23;20025;-77
2022/08/11 06:05:34;;;;;;;8.52;3.90;;;;;;;22.98;98.93;102470.69;6186077;23;20025;-78
2022/08/11 06:08:13;;;;;;;4.35;3.20;;;;;;;23.18;96.72;102468.50;6172389;23;20325;-78
2022/08/11 06:10:43;;;;;;;4.43;3.25;;;;;;;23.13;95.38;102468.59;6143652;23;20032;-79
2022/08/11 06:13:16;;;;;;;;;;;;;;;23.04;93.58;102475.06;6168075;23;20638;-78
2022/08/11 06:15:51;;;;;;;4.60;3.20;;;;;;;22.87;94.67;102469.16;6181152;23;19916;-80
2022/08/11 06:18:21;;;;;;;2.85;2.65;;;;;;;22.76;95.45;102469.44;6119242;23;20029;-78
2022/08/11 06:20:57;;;;;;;7.05;3.20;;;;;;;22.63;94.85;102457.16;6184463;23;20347;-79
2022/08/11 06:23:31;;;;;;;8.02;3.80;;;;;;;22.47;95.34;102468.25;6174840;23;20021;-78
2022/08/11 06:26:09;;;;;;;4.10;3.33;;;;;;;22.33;95.40;102470.34;6176202;23;20354;-79
2022/08/11 06:28:39;;;;;;;4.65;3.47;;;;;;;22.24;96.13;102465.13;6129139;23;20021;-79
2022/08/11 06:31:12;;;;;;;;;;;;;;;22.13;96.48;102463.50;6179568;23;20020;-79
2022/08/11 06:33:51;;;;;;;4.70;3.35;;;;;;;22.07;97.57;102462.75;6174400;23;19923;-79
2022/08/11 06:36:50;;;;;;;8.57;3.00;;;;;;;22.02;97.94;102457.47;6177594;23;20028;-79
2022/08/11 06:39:32;;;;;;;5.65;3.67;;;;;;;21.97;98.71;102456.69;6187439;23;20055;-79
2022/08/11 06:42:46;;;;;;;7.68;3.97;;;;;;;22.02;98.98;102459.28;6178078;23;20518;-79
2022/08/11 06:45:39;;;;;;;3.80;2.97;;;;;;;22.16;99.25;102462.59;6169265;23;20021;-78
2022/08/11 06:48:19;;;;;;;4.35;3.30;;;;;;;22.23;98.13;102460.66;6160454;23;20043;-79
2022/08/11 06:51:13;;;;;;;6.43;3.42;;;;;;;22.25;97.44;102459.75;6165041;23;20029;-79
2022/08/11 06:53:51;;;;;;;7.57;3.50;;;;;;;22.26;96.01;102458.81;6179822;23;20017;-78
2022/08/11 07:02:45;;;;;;;4.50;2.33;;;;;;;22.31;97.20;102456.06;6146572;23;20032;-79
2022/08/11 07:05:26;;;;;;;3.15;2.85;;;;;;;22.32;96.75;102455.13;6187133;23;20350;-78
2022/08/11 07:17:47;;;;;;;6.45;2.88;;;;;;;22.41;95.15;102460.31;6177769;23;20030;-79
2022/08/11 07:28:54;;;;;;;4.03;2.78;;;;;;;22.82;92.79;102458.53;6175360;23;20029;-78
2022/08/11 07:31:29;;;;;;;5.18;2.70;;;;;;;22.94;92.03;102460.06;6133583;23;20024;-79
2022/08/11 07:34:24;;;;;;;4.43;2.80;;;;;;;23.01;91.34;102455.44;6171998;23;20040;-78
2022/08/11 07:36:55;;;;;;;5.20;2.92;;;;;;;23.07;91.43;102460.69;6178491;23;20028;-79
2022/08/11 07:39:30;;;;;;;4.95;2.78;;;;;;;23.12;91.21;102456.97;6184511;23;20017;-79
2022/08/11 07:42:05;;;;;;;7.88;2.72;;;;;;;23.21;92.65;102457.66;6149585;23;20024;-80
2022/08/11 07:48:10;;;;;;;4.97;3.10;;;;;;;23.28;90.88;102451.22;6173736;23;20017;-80
2022/08/11 07:53:03;;;;;;;11.18;3.35;;;;;;;23.30;92.73;102462.81;6144894;23;20482;-79
2022/08/11 07:55:34;;;;;;;6.07;3.33;;;;;;;23.32;92.29;102453.78;6186540;23;20013;-79
2022/08/11 08:18:22;;;;;;;6.60;2.90;;;;;;;23.62;94.43;102453.94;6189443;23;20017;-78
2022/08/11 08:21:10;;;;;;;9.65;3.47;;;;;;;23.66;92.69;102461.00;6149626;23;20017;-76
2022/08/11 08:23:42;;;;;;;8.25;3.78;;;;;;;23.68;92.25;102456.44;6139016;23;20469;-79
2022/08/11 08:31:54;;;;;;;6.82;3.28;;;;;;;23.73;90.64;102459.91;6162158;23;20221;-77
2022/08/11 08:34:24;;;;;;;4.68;3.22;;;;;;;23.77;90.34;102459.84;6187987;23;20350;-77
2022/08/11 08:36:54;;;;;;;4.80;2.63;;;;;;;23.78;90.16;102453.53;6185147;23;20154;-78
2022/08/11 08:39:23;;;;;;;4.63;3.45;;;;;;;23.80;88.96;102449.00;6157094;23;20347;-78
2022/08/11 08:41:54;;;;;;;4.93;2.70;;;;;;;23.86;89.54;102449.75;6184840;23;20406;-78
2022/08/11 08:44:25;;;;;;;4.43;3.17;;;;;;;23.91;89.36;102445.13;6183892;23;20013;-78
2022/08/11 08:47:13;;;;;;;7.13;3.08;;;;;;;23.94;89.76;102441.44;6124000;23;20335;-77
2022/08/11 08:50:13;;;;;;;5.80;3.13;;;;;;;23.93;88.68;102445.97;6175204;23;20302;-77
2022/08/11 08:53:04;;;;;;;5.95;3.25;;;;;;;23.98;88.11;102447.63;6184543;23;20032;-77
2022/08/11 08:55:33;;;;;;;8.35;2.92;;;;;;;23.98;86.69;102461.09;6179901;23;20448;-78
2022/08/11 08:58:02;;;;;;;2.80;1.92;;;;;;;24.01;86.63;102451.13;6176786;23;20024;-78
2022/08/11 09:00:39;;;;;;;4.03;2.17;;;;;;;24.07;86.28;102456.34;6187194;23;20013;-78
2022/08/11 09:03:09;;;;;;;5.03;2.92;;;;;;;24.12;85.81;102454.41;6168364;23;20017;-78
2022/08/11 09:05:58;;;;;;;4.23;2.83;;;;;;;24.19;85.56;102451.53;6185976;23;20028;-78
2022/08/11 09:08:29;;;;;;;4.97;2.60;;;;;;;24.25;84.43;102463.03;6188280;23;20283;-77
2022/08/11 09:13:46;;;;;;;5.93;2.30;;;;;;;24.26;81.26;102451.31;6184040;23;20032;-77
2022/08/11 09:16:38;;;;;;;4.38;1.90;;;;;;;24.26;78.77;102450.44;6172608;23;20016;-78
2022/08/11 09:19:07;;;;;;;5.35;1.77;;;;;;;24.31;77.44;102459.28;6184074;23;20024;-78
2022/08/11 09:21:40;;;;;;;4.95;1.50;;;;;;;24.36;76.58;102457.31;6182982;23;20016;-78
2022/08/11 09:27:07;;;;;;;5.70;2.42;;;;;;;24.48;74.50;102447.97;6180815;23;20021;-78
2022/08/11 09:29:37;;;;;;;3.45;1.45;;;;;;;24.54;73.14;102446.94;6183202;23;20024;-77
2022/08/11 09:32:07;;;;;;;1.52;1.35;;;;;;;24.60;72.91;102452.16;6163987;23;20029;-79
2022/08/11 09:34:37;;;;;;;7.60;1.77;;;;;;;24.71;70.27;102447.34;6145391;23;20017;-78
2022/08/11 09:40:32;;;;;;;5.85;1.48;;;;;;;24.81;66.21;102456.88;6174106;23;20350;-77
2022/08/11 09:45:53;;;;;;;1.50;1.40;;;;;;;25.00;66.26;102440.13;6184438;23;20146;-78
2022/08/11 09:48:23;;;;;;;3.60;1.50;;;;;;;25.12;66.84;102441.53;6116930;23;20021;-78
2022/08/11 09:50:55;;;;;;;2.10;1.40;;;;;;;25.25;66.35;102443.81;6151497;23;20242;-80
2022/08/11 09:53:29;;;;;;;2.75;1.35;;;;;;;25.39;65.31;102439.78;6179486;23;20451;-78
2022/08/11 09:59:03;;;;;;;5.80;1.70;;;;;;;25.57;63.60;102435.56;6174850;23;20021;-78
2022/08/11 10:01:41;;;;;;;2.90;1.05;;;;;;;25.64;60.14;102437.97;6158720;23;20021;-77
2022/08/11 10:04:15;;;;;;;2.38;1.20;;;;;;;25.74;58.06;102435.84;6166787;23;20029;-77
2022/08/11 10:07:00;;;;;;;3.40;1.00;;;;;;;25.84;57.78;102433.69;6181294;23;20504;-78
2022/08/11 10:09:39;;;;;;;7.68;1.58;;;;;;;25.94;56.48;102445.09;6183245;23;21000;-78
2022/08/11 10:12:18;;;;;;;3.75;1.20;;;;;;;25.92;54.71;102437.03;6185393;23;20028;-76
2022/08/11 10:20:36;;;;;;;1.95;1.25;;;;;;;26.04;53.77;102431.19;6161276;23;20025;-79
2022/08/11 10:28:44;;;;;;;1.40;0.88;;;;;;;26.22;53.43;102423.34;6165040;23;20225;-77
2022/08/11 10:34:27;;;;;;;2.83;1.10;;;;;;;26.39;55.15;102409.16;6160671;23;20481;-78
2022/08/11 10:37:01;;;;;;;5.03;1.40;;;;;;;26.47;53.54;102420.56;6173664;23;20024;-77
2022/08/11 10:39:31;;;;;;;3.55;1.08;;;;;;;26.56;54.83;102417.50;6182468;23;20021;-78
2022/08/11 10:47:33;;;;;;;0.80;0.80;;;;;;;26.68;53.03;102413.47;6177122;23;20017;-77
2022/08/11 10:47:57;;;;;;;1.02;1.02;;;;;;;26.72;52.69;102411.53;6184375;23;20021;-77
2022/08/11 10:58:56;;;;;;;2.15;1.10;;;;;;;27.00;49.98;102392.34;6150000;23;20029;-78
2022/08/11 11:01:33;;;;;;;1.58;1.00;;;;;;;27.06;50.16;102396.63;6139708;23;20136;-77
2022/08/11 11:04:13;;;;;;;2.15;1.30;;;;;;;27.12;49.14;102391.81;6173601;23;20025;-77
2022/08/11 11:06:58;;;;;;;1.25;1.10;;;;;;;27.26;48.97;102395.78;6150438;23;20493;-77
2022/08/11 11:09:31;;;;;;;3.33;1.30;;;;;;;27.33;49.02;102392.75;6170361;23;20087;-77
2022/08/11 11:17:56;;;;;;;2.55;1.20;;;;;;;27.42;48.68;102376.13;6178764;23;20025;-77
2022/08/11 11:20:26;;;;;;;1.60;1.23;;;;;;;27.49;48.29;102384.88;6180644;23;20016;-76
2022/08/11 11:23:32;;;;;;;4.28;1.00;;;;;;;27.60;45.62;102381.69;6162515;23;20027;-76
2022/08/11 11:26:20;;;;;;;1.38;1.00;;;;;;;27.67;46.95;102371.44;6150798;23;20486;-76
2022/08/11 11:29:24;;;;;;;2.63;0.93;;;;;;;27.76;47.30;102369.19;6184539;23;20465;-78
2022/08/11 11:32:01;;;;;;;2.03;1.15;;;;;;;27.95;47.41;102373.81;6180859;23;20336;-77
2022/08/11 11:34:41;;;;;;;4.45;1.35;;;;;;;28.09;46.25;102381.28;6175428;23;20021;-78
2022/08/11 11:37:22;;;;;;;2.17;1.10;;;;;;;28.22;46.46;102379.78;6133467;23;20017;-77
2022/08/11 11:39:53;;;;;;;6.70;1.77;;;;;;;28.29;45.19;102372.25;6178948;23;20055;-77
2022/08/11 11:42:22;;;;;;;13.07;1.55;;;;;;;28.35;45.87;102372.81;6180302;23;20021;-77
2022/08/11 11:44:51;;;;;;;2.72;1.17;;;;;;;28.46;47.26;102368.72;6184570;23;20021;-77
2022/08/11 11:47:24;;;;;;;6.22;1.20;;;;;;;28.55;47.80;102371.03;6175404;23;20474;-77
2022/08/11 11:49:54;;;;;;;2.13;1.20;;;;;;;28.58;46.41;102376.28;6183204;23;20399;-77
2022/08/11 11:52:22;;;;;;;2.15;1.50;;;;;;;28.61;49.55;102364.41;6179777;23;20351;-78
2022/08/11 11:54:55;;;;;;;6.88;1.30;;;;;;;28.60;47.58;102368.06;6157983;23;20024;-78
2022/08/11 12:03:16;;;;;;;4.63;1.30;;;;;;;28.77;51.68;102363.59;6173665;23;20017;-77
2022/08/11 12:05:45;;;;;;;;;;;;;;;28.82;50.83;102365.19;6122841;23;20395;-76
2022/08/11 12:08:15;;;;;;;3.05;1.10;;;;;;;28.78;50.50;102361.75;6181786;23;20332;-77
2022/08/11 12:14:24;;;;;;;1.73;1.20;;;;;;;28.67;51.62;102359.56;6076882;23;20053;-77
2022/08/11 12:16:55;;;;;;;4.53;1.52;;;;;;;28.64;53.05;102357.03;6160272;23;20482;-77
2022/08/11 12:19:27;;;;;;;1.50;1.40;;;;;;;28.65;53.43;102360.59;6154554;23;20028;-76
2022/08/11 12:27:31;;;;;;;3.05;1.67;;;;;;;28.55;54.46;102346.63;6174360;23;20343;-78
2022/08/11 12:30:04;;;;;;;2.42;1.40;;;;;;;28.54;55.65;102351.16;6181832;23;20047;-78
2022/08/11 12:32:35;;;;;;;4.60;1.50;;;;;;;28.54;56.31;102352.97;6185158;23;20028;-78
2022/08/11 12:35:05;;;;;;;5.25;1.40;;;;;;;28.52;56.65;102347.63;6175646;23;20020;-78
2022/08/11 12:37:42;;;;;;;2.08;1.40;;;;;;;28.50;56.21;102349.50;6159666;23;20446;-77
2022/08/11 12:46:20;;;;;;;2.88;1.30;;;;;;;28.32;56.88;102348.59;6183298;23;20021;-77
2022/08/11 12:52:03;;;;;;;5.47;1.38;;;;;;;28.41;57.19;102338.25;6151086;23;20021;-77
2022/08/11 12:54:56;;;;;;;1.58;1.25;;;;;;;28.31;56.69;102340.53;6164245;23;20029;-77
2022/08/11 13:06:02;;;;;;;4.03;1.45;;;;;;;28.14;58.60;102325.94;6186218;23;20238;-77
2022/08/11 13:08:38;;;;;;;2.80;1.55;;;;;;;28.19;58.86;102331.16;6178180;23;20013;-77
2022/08/11 13:14:16;;;;;;;3.55;1.40;;;;;;;28.29;58.12;102327.03;6176772;23;20323;-77
2022/08/11 13:19:33;;;;;;;2.78;1.10;;;;;;;28.32;56.37;102328.75;6183949;23;20343;-78
2022/08/11 13:22:06;;;;;;;1.55;1.00;;;;;;;28.25;55.06;102328.16;6146286;23;20017;-78
2022/08/11 13:24:35;;;;;;;6.90;1.08;;;;;;;28.23;55.26;102318.34;6150198;23;20021;-78
2022/08/11 13:27:05;;;;;;;2.17;1.20;;;;;;;28.24;55.75;102322.78;6165622;23;20423;-78
2022/08/11 13:29:34;;;;;;;3.90;1.50;;;;;;;28.24;55.78;102317.38;6177392;23;20028;-77
2022/08/11 13:32:03;;;;;;;2.95;1.13;;;;;;;28.17;54.60;102314.09;6185717;23;20565;-77
2022/08/11 13:34:34;;;;;;;3.08;1.30;;;;;;;28.12;55.84;102310.72;6183176;23;20339;-79
2022/08/11 13:37:04;;;;;;;3.55;1.38;;;;;;;28.11;56.94;102317.97;6180841;23;20604;-77
2022/08/11 13:39:35;;;;;;;3.03;1.30;;;;;;;28.11;57.99;102314.34;6185460;23;20021;-77
2022/08/11 13:42:05;;;;;;;6.30;1.88;;;;;;;28.16;58.60;102317.75;6163669;23;20091;-78
2022/08/11 13:44:36;;;;;;;1.95;1.05;;;;;;;28.13;56.56;102310.66;6118436;23;20021;-77
2022/08/11 13:47:07;;;;;;;1.55;1.00;;;;;;;28.16;57.23;102315.03;6160758;23;20071;-78
2022/08/11 13:49:38;;;;;;;2.90;1.50;;;;;;;28.16;58.67;102313.19;6159373;23;20025;-79
2022/08/11 13:52:14;;;;;;;2.80;1.40;;;;;;;28.12;58.09;102306.16;6182429;23;20021;-77
2022/08/11 13:54:46;;;;;;;2.67;1.63;;;;;;;28.08;59.93;102306.41;6181631;23;20020;-77
2022/08/11 13:57:17;;;;;;;5.10;1.48;;;;;;;27.95;58.65;102309.69;6167255;23;20328;-77
2022/08/11 14:00:08;;;;;;;4.38;1.42;;;;;;;27.86;60.51;102309.19;6164788;23;20028;-79
2022/08/11 14:03:11;;;;;;;1.10;1.00;;;;;;;27.83;59.81;102314.75;6161791;23;20029;-77
2022/08/11 14:05:50;;;;;;;1.10;1.00;;;;;;;27.74;60.67;102300.69;6147345;23;20017;-77
2022/08/11 14:08:25;;;;;;;2.30;1.40;;;;;;;27.75;59.59;102293.44;6181503;23;20489;-78
2022/08/11 14:14:21;;;;;;;4.28;1.55;;;;;;;27.72;59.90;102293.59;6162981;23;20021;-78
2022/08/11 14:16:56;;;;;;;1.63;1.30;;;;;;;27.65;59.17;102290.28;6184324;23;20017;-78
2022/08/11 14:19:26;;;;;;;3.03;1.40;;;;;;;27.55;60.56;102289.84;6186239;23;20020;-77
2022/08/11 14:22:08;;;;;;;4.40;1.40;;;;;;;27.49;60.78;102287.41;6183033;23;20227;-77
2022/08/11 14:24:48;;;;;;;2.72;1.60;;;;;;;27.43;59.29;102279.59;6177631;23;20027;-77
2022/08/11 14:27:17;;;;;;;1.30;1.02;;;;;;;27.40;59.39;102279.72;6187795;23;20021;-78
2022/08/11 14:30:53;;;;;;;2.43;1.10;;;;;;;27.35;59.73;102274.50;6183119;23;20017;-78
2022/08/11 14:32:56;;;;;;;2.10;1.50;;;;;;;27.36;59.53;102272.69;6184179;23;20733;-77
2022/08/11 14:35:27;;;;;;;1.20;1.10;;;;;;;27.32;60.49;102274.63;6186791;23;20043;-78
2022/08/11 14:37:58;;;;;;;2.08;1.20;;;;;;;27.31;61.07;102266.59;6184744;23;20238;-78
2022/08/11 14:49:08;;;;;;;2.83;1.40;;;;;;;26.98;63.83;102257.16;6180810;23;20028;-78
2022/08/11 14:51:37;;;;;;;3.20;1.60;;;;;;;26.98;63.55;102257.16;6177316;23;20024;-77
2022/08/11 14:56:59;;;;;;;1.95;1.30;;;;;;;26.98;62.50;102242.75;6167783;23;20681;-79
2022/08/11 14:59:28;;;;;;;3.65;1.30;;;;;;;27.00;62.32;102246.28;6130184;23;20021;-78
2022/08/11 15:04:46;;;;;;;5.70;1.77;;;;;;;26.99;63.65;102244.50;6182755;23;20437;-78
2022/08/11 15:07:15;;;;;;;1.60;1.50;;;;;;;26.93;65.11;102234.84;6161707;23;20024;-77
2022/08/11 15:09:45;;;;;;;5.38;1.98;;;;;;;26.94;67.15;102238.44;6180312;23;20017;-78
2022/08/11 15:12:36;;;;;;;4.65;1.85;;;;;;;26.93;68.53;102228.56;6179117;23;20032;-77
2022/08/11 15:17:57;;;;;;;3.58;1.33;;;;;;;26.83;68.83;102231.66;6145426;23;20021;-79
2022/08/11 15:26:14;;;;;;;3.33;1.45;;;;;;;26.87;72.21;102223.41;6183282;23;20025;-78
2022/08/11 15:37:28;;;;;;;2.88;1.70;;;;;;;26.94;72.18;102206.84;6185121;23;20028;-77
2022/08/11 15:46:01;;;;;;;1.50;1.40;;;;;;;26.91;71.56;102198.88;6162191;23;20281;-78
2022/08/11 15:48:32;;;;;;;6.20;1.38;;;;;;;26.93;72.79;102204.22;6185197;23;20021;-78
2022/08/11 15:51:16;;;;;;;3.70;1.95;;;;;;;26.91;73.33;102189.88;6185086;23;20032;-78
2022/08/11 15:53:58;;;;;;;3.80;1.58;;;;;;;26.91;72.91;102190.75;6174078;23;20029;-77
2022/08/11 15:56:30;;;;;;;3.13;1.92;;;;;;;26.93;73.12;102187.97;6186117;23;20112;-81
2022/08/11 16:04:56;;;;;;;3.80;1.50;;;;;;;26.90;72.61;102185.41;6126720;23;20205;-77
2022/08/11 16:07:28;;;;;;;2.67;1.50;;;;;;;26.89;72.49;102179.13;6104134;23;20064;-77
2022/08/11 16:10:14;;;;;;;3.67;1.30;;;;;;;26.89;72.40;102175.56;6094531;23;20153;-77
2022/08/11 16:18:39;;;;;;;2.72;1.10;;;;;;;26.82;71.26;102172.22;6135320;23;20471;-78
2022/08/11 16:21:15;;;;;;;;;;;;;;;26.79;71.55;102169.69;6130713;23;20018;-77
2022/08/11 16:24:08;;;;;;;5.50;1.55;;;;;;;26.74;71.91;102166.28;6150816;23;19943;-78
2022/08/11 16:26:58;;;;;;;4.68;2.08;;;;;;;26.71;72.43;102172.72;6152005;23;20255;-77
2022/08/11 16:29:44;;;;;;;2.22;1.55;;;;;;;26.70;72.33;102176.34;6148372;23;20459;-78
2022/08/11 16:32:22;;;;;;;2.42;1.20;;;;;;;26.72;67.88;102173.59;6151279;23;20037;-77
2022/08/11 16:40:40;;;;;;;6.13;1.77;;;;;;;26.76;63.78;102159.00;6182227;23;20359;-77
2022/08/11 16:48:52;;;;;;;2.40;2.00;;;;;;;26.80;60.08;102156.06;6150418;23;20027;-77
2022/08/11 16:51:21;;;;;;;3.20;1.48;;;;;;;26.80;59.63;102153.34;6185093;23;20017;-79
2022/08/11 16:53:51;;;;;;;5.93;1.50;;;;;;;26.79;59.44;102148.91;6155799;23;20017;-76
2022/08/11 16:56:40;;;;;;;3.58;1.15;;;;;;;26.76;59.12;102154.44;6183123;23;20025;-77
2022/08/11 16:59:17;;;;;;;1.58;1.33;;;;;;;26.76;59.06;102157.16;6188600;23;20021;-77
2022/08/11 17:01:51;;;;;;;3.08;1.63;;;;;;;26.72;59.19;102147.44;6142247;23;20021;-78
2022/08/11 17:13:28;;;;;;;3.22;1.35;;;;;;;26.55;58.16;102158.94;6182146;23;20139;-77
2022/08/11 17:16:11;;;;;;;7.30;1.38;;;;;;;26.52;58.08;102156.41;6185018;23;20024;-78